Weather at Lands End Heliport

Public forecast

Using degrees Fahrenheit for public forecast. Weather courtesy of forecast.io.

Closest aviation weather report (METAR) to Lands End Heliport

Closest report is Grand Junction Regional Airport, 3.1 nm (5.8 km) NNW. Retrieved 2020/10/30 01:53 UTC (1 hour ago):

KGJT 300153Z 03004KT 10SM CLR 07/03 A3026 RMK AO2 SLP250 T00670028

Closest aviation forecast (TAF) to Lands End Heliport

Closest forecast is Grand Junction Regional Airport, 3.1 nm (5.8 km) NNW. Retrieved 2020-10-30 00:28 UTC (3 hours ago):

TAF KCNY 292326Z 3000/3024 VRB03KT P6SM SKC TAF KGJT 292326Z 3000/3024 VRB03KT P6SM SKC FM300900 11005KT P6SM SKC FM301900 30005KT P6SM SKC